Map

Track Data

SID SEASON NUMBER BASIN SUBBASIN NAME ISO_TIME NATURE LAT LON WMO_WIND WMO_PRES WMO_AGENCY TRACK_TYPE DIST2LAND LANDFALL IFLAG USA_AGENCY USA_ATCF_ID USA_LAT USA_LON USA_RECORD USA_STATUS USA_WIND USA_PRES USA_SSHS USA_R34_NE USA_R34_SE USA_R34_SW USA_R34_NW USA_R50_NE USA_R50_SE USA_R50_SW USA_R50_NW USA_R64_NE USA_R64_SE USA_R64_SW USA_R64_NW USA_POCI USA_ROCI USA_RMW USA_EYE TOKYO_LAT TOKYO_LON TOKYO_GRADE TOKYO_WIND TOKYO_PRES TOKYO_R50_DIR TOKYO_R50_LONG TOKYO_R50_SHORT TOKYO_R30_DIR TOKYO_R30_LONG TOKYO_R30_SHORT TOKYO_LAND CMA_LAT CMA_LON CMA_CAT CMA_WIND CMA_PRES HKO_LAT HKO_LON HKO_CAT HKO_WIND HKO_PRES NEWDELHI_LAT NEWDELHI_LON NEWDELHI_GRADE NEWDELHI_WIND NEWDELHI_PRES NEWDELHI_CI NEWDELHI_DP NEWDELHI_POCI REUNION_LAT REUNION_LON REUNION_TYPE REUNION_WIND REUNION_PRES REUNION_TNUM REUNION_CI REUNION_RMW REUNION_R34_NE REUNION_R34_SE REUNION_R34_SW REUNION_R34_NW REUNION_R50_NE REUNION_R50_SE REUNION_R50_SW REUNION_R50_NW REUNION_R64_NE REUNION_R64_SE REUNION_R64_SW REUNION_R64_NW BOM_LAT BOM_LON BOM_TYPE BOM_WIND BOM_PRES BOM_TNUM BOM_CI BOM_RMW BOM_R34_NE BOM_R34_SE BOM_R34_SW BOM_R34_NW BOM_R50_NE BOM_R50_SE BOM_R50_SW BOM_R50_NW BOM_R64_NE BOM_R64_SE BOM_R64_SW BOM_R64_NW BOM_ROCI BOM_POCI BOM_EYE BOM_POS_METHOD BOM_PRES_METHOD NADI_LAT NADI_LON NADI_CAT NADI_WIND NADI_PRES WELLINGTON_LAT WELLINGTON_LON WELLINGTON_WIND WELLINGTON_PRES DS824_LAT DS824_LON DS824_STAGE DS824_WIND DS824_PRES TD9636_LAT TD9636_LON TD9636_STAGE TD9636_WIND TD9636_PRES TD9635_LAT TD9635_LON TD9635_WIND TD9635_PRES TD9635_ROCI NEUMANN_LAT NEUMANN_LON NEUMANN_CLASS NEUMANN_WIND NEUMANN_PRES MLC_LAT MLC_LON MLC_CLASS MLC_WIND MLC_PRES USA_GUST BOM_GUST BOM_GUST_PER REUNION_GUST REUNION_GUST_PER USA_SEAHGT USA_SEARAD_NE USA_SEARAD_SE USA_SEARAD_SW USA_SEARAD_NW STORM_SPEED STORM_DIR
1998320N10102 1998 94 WP MM NOT_NAMED 1998-11-16 00:00:00 NR 10.1000 102.300 main 125 125 O_____________ jtwc_io IO071998 10.1000 102.300 25 -1 11 277
1998320N10102 1998 94 WP MM NOT_NAMED 1998-11-16 03:00:00 NR 10.1627 101.770 main 162 162 P_____________ IO071998 10.1627 101.770 25 -1 10 276
1998320N10102 1998 94 WP MM NOT_NAMED 1998-11-16 06:00:00 NR 10.2000 101.300 main 199 164 O_____________ jtwc_io IO071998 10.2000 101.300 25 -1 8 273
1998320N10102 1998 94 WP MM NOT_NAMED 1998-11-16 09:00:00 NR 10.1999 100.927 main 164 142 P_____________ IO071998 10.1999 100.927 25 -1 7 270
1998320N10102 1998 94 WP MM NOT_NAMED 1998-11-16 12:00:00 NR 10.2000 100.600 main 142 109 O_____________ jtwc_io IO071998 10.2000 100.600 25 -1 7 274
1998320N10102 1998 94 WP MM NOT_NAMED 1998-11-16 15:00:00 NR 10.2499 100.265 main 109 66 P_____________ IO071998 10.2499 100.265 25 -1 7 278
1998320N10102 1998 94 NI BB NOT_NAMED 1998-11-16 18:00:00 NR 10.3000 99.9000 main 66 24 O_____________ jtwc_io IO071998 10.3000 99.9000 25 -1 8 274
1998320N10102 1998 94 NI BB NOT_NAMED 1998-11-16 21:00:00 NR 10.3000 99.4724 main 24 0 P_____________ IO071998 10.3000 99.4724 25 -1 9 270
1998320N10102 1998 94 NI BB NOT_NAMED 1998-11-17 00:00:00 NR 10.3000 99.0000 main 0 0 O_____________ jtwc_io IO071998 10.3000 99.0000 25 -1 10 273
1998320N10102 1998 94 NI BB NOT_NAMED 1998-11-17 03:00:00 NR 10.3500 98.4926 main 0 0 P_____________ IO071998 10.3500 98.4926 25 -1 10 276
1998320N10102 1998 94 NI BB NOT_NAMED 1998-11-17 06:00:00 NR 10.4000 98.0000 main 54 54 O_____________ jtwc_io IO071998 10.4000 98.0000 25 -1 9 274
1998320N10102 1998 94 NI BB NOT_NAMED 1998-11-17 09:00:00 NR 10.4074 97.5850 main 98 98 P_____________ IO071998 10.4074 97.5850 25 -1 8 270
1998320N10102 1998 94 NI BB NOT_NAMED 1998-11-17 12:00:00 NR 10.4000 97.2000 main 142 142 O_____________ jtwc_io IO071998 10.4000 97.2000 25 -1 8 269
1998320N10102 1998 94 NI BB NOT_NAMED 1998-11-17 15:00:00 NR 10.3999 96.8075 main 186 186 P_____________ IO071998 10.3999 96.8075 25 -1 8 270
1998320N10102 1998 94 NI BB NOT_NAMED 1998-11-17 18:00:00 NR 10.4000 96.4000 main 229 229 O_____________ jtwc_io IO071998 10.4000 96.4000 25 -1 8 269
1998320N10102 1998 94 NI BB NOT_NAMED 1998-11-17 21:00:00 NR 10.3925 95.9500 main 284 284 P_____________ IO071998 10.3925 95.9500 25 -1 9 270
1998320N10102 1998 94 NI BB NOT_NAMED 1998-11-18 00:00:00 NR 10.4000 95.5000 main 328 328 O_____________ jtwc_io IO071998 10.4000 95.5000 25 -1 9 273
1998320N10102 1998 94 NI BB NOT_NAMED 1998-11-18 03:00:00 NR 10.4425 95.0775 main 372 372 P_____________ IO071998 10.4425 95.0775 25 -1 8 277
1998320N10102 1998 94 NI BB NOT_NAMED 1998-11-18 06:00:00 NR 10.5000 94.7000 main 415 415 O_____________ jtwc_io IO071998 10.5000 94.7000 25 -1 7 277
1998320N10102 1998 94 NI BB NOT_NAMED 1998-11-18 09:00:00 NR 10.5274 94.3924 main 448 448 P_____________ IO071998 10.5274 94.3924 25 -1 6 280
1998320N10102 1998 94 NI BB NOT_NAMED 1998-11-18 12:00:00 NR 10.6000 94.1000 main 481 481 O_____________ jtwc_io IO071998 10.6000 94.1000 25 -1 7 291
1998320N10102 1998 94 NI BB NOT_NAMED 1998-11-18 15:00:00 NR 10.7775 93.7426 main 525 525 P_____________ IO071998 10.7775 93.7426 25 -1 8 300
1998320N10102 1998 94 NI BB NOT_NAMED 1998-11-18 18:00:00 NR 11.0000 93.4000 main 548 531 O_____________ jtwc_io IO071998 11.0000 93.4000 25 -1 7 306
1998320N10102 1998 94 NI BB NOT_NAMED 1998-11-18 21:00:00 NR 11.1924 93.1499 main 533 518 P_____________ IO071998 11.1924 93.1499 25 -1 6 309
1998320N10102 1998 94 NI BB NOT_NAMED 1998-11-19 00:00:00 NR 11.4000 92.9000 main 518 498 O_____________ jtwc_io IO071998 11.4000 92.9000 25 -1 8 312
1998320N10102 1998 94 NI BB NOT_NAMED 1998-11-19 03:00:00 NR 11.7080 92.5639 25 1002 newdelhi main 498 487 P___O_________ IO071998 11.6349 92.5799 25 -1 12.0000 92.5000 D 25 1002 1.50000 4 8 312
1998320N10102 1998 94 NI BB NOT_NAMED 1998-11-19 06:00:00 NR 11.9333 92.3000 25 1002 newdelhi main 492 479 O___O_________ jtwc_io IO071998 11.9000 92.2000 25 -1 12.0000 92.5000 D 25 1002 1.50000 4 8 307
1998320N10102 1998 94 NI BB NOT_NAMED 1998-11-19 09:00:00 NR 12.2130 91.8744 main 485 481 P___P_________ IO071998 12.1849 91.7799 25 -1 12.2505 92.0005 D 27 1001 5 10 303
1998320N10102 1998 94 NI BB NOT_NAMED 1998-11-19 12:00:00 NR 12.5000 91.4000 30 1000 newdelhi main 491 489 O___O_________ jtwc_io IO071998 12.5000 91.3000 25 -1 12.5000 91.5000 DD 30 1000 2.00000 6 9 302
1998320N10102 1998 94 NI BB NOT_NAMED 1998-11-19 15:00:00 NR 12.6675 91.1362 30 1000 newdelhi main 497 497 P___O_________ IO071998 12.8349 90.7724 25 -1 12.5000 91.5000 DD 30 1000 2.00000 6 9 294
1998320N10102 1998 94 NI BB NOT_NAMED 1998-11-19 18:00:00 NR 12.8500 90.6000 30 1002 newdelhi main 520 520 O___O_________ jtwc_io IO071998 13.2000 90.2000 25 -1 12.5000 91.0000 DD 30 1002 2.00000 6 15 298
1998320N10102 1998 94 NI BB NOT_NAMED 1998-11-19 21:00:00 NR 13.3712 89.7897 main 555 555 P___P_________ IO071998 13.5851 89.5775 30 -1 13.1573 90.0019 DD 30 1002 6 19 306
1998320N10102 1998 94 NI BB NOT_NAMED 1998-11-20 00:00:00 NR 14.0000 89.0000 30 1002 newdelhi main 601 601 O___O_________ jtwc_io IO071998 14.0000 89.0000 35 0 14.0000 89.0000 DD 30 1002 2.00000 6 17 312
1998320N10102 1998 94 NI BB NOT_NAMED 1998-11-20 03:00:00 NR 14.4749 88.5163 35 1000 newdelhi main 633 571 P___O_________ IO071998 14.4499 88.5325 45 0 14.5000 88.5000 CS 35 1000 2.50000 8 13 317
1998320N10102 1998 94 NI BB NOT_NAMED 1998-11-20 06:00:00 NR 14.9500 88.1000 35 998 newdelhi main 563 524 O___O_________ jtwc_io IO071998 14.9000 88.2000 55 0 15.0000 88.0000 CS 35 998 2.50000 10 11 332
1998320N10102 1998 94 NI BB NOT_NAMED 1998-11-20 09:00:00 NR 15.4112 87.9987 35 996 newdelhi main 524 508 P___O_________ IO071998 15.3224 87.9973 55 0 15.5000 88.0000 CS 35 996 2.50000 10 7 348
1998320N10102 1998 94 NI BB NOT_NAMED 1998-11-20 12:00:00 NR 15.6000 87.9500 45 996 newdelhi main 508 485 O___O_________ jtwc_io IO071998 15.7000 87.9000 55 0 15.5000 88.0000 CS 45 996 3.00000 10 5 353
1998320N10102 1998 94 NI BB NOT_NAMED 1998-11-20 15:00:00 NR 15.8606 87.9382 main 477 462 P___P_________ IO071998 16.0225 87.8424 55 0 15.6988 88.0340 CS 45 996 10 6 356
1998320N10102 1998 94 NI BB NOT_NAMED 1998-11-20 18:00:00 NR 16.1500 87.9000 45 996 newdelhi main 453 424 O___O_________ jtwc_io IO071998 16.3000 87.8000 55 0 16.0000 88.0000 CS 45 996 3.00000 10 5 338
1998320N10102 1998 94 NI BB NOT_NAMED 1998-11-20 21:00:00 NR 16.3632 87.7277 main 424 400 P___P_________ IO071998 16.5275 87.7224 55 0 16.1990 87.7331 CS 45 996 10 6 326
1998320N10102 1998 94 NI BB NOT_NAMED 1998-11-21 00:00:00 NR 16.6500 87.5500 45 996 newdelhi main 390 341 O___O_________ jtwc_io IO071998 16.8000 87.6000 55 0 16.5000 87.5000 CS 45 996 3.00000 10 8 340
1998320N10102 1998 94 NI BB NOT_NAMED 1998-11-21 03:00:00 NR 17.1063 87.4426 55 992 newdelhi main 341 288 P___O_________ IO071998 17.2126 87.3853 57 0 17.0000 87.5000 CS 55 992 3.00000 16 10 349
1998320N10102 1998 94 NI BB NOT_NAMED 1998-11-21 06:00:00 NR 17.6000 87.3500 55 992 newdelhi main 288 232 O___O_________ jtwc_io IO071998 17.7000 87.2000 60 0 17.5000 87.5000 SCS 55 992 3.50000 16 10 354
1998320N10102 1998 94 NI BB NOT_NAMED 1998-11-21 09:00:00 NR 18.1075 87.3237 55 992 newdelhi main 232 164 P___O_________ IO071998 18.2149 87.1474 62 0 18.0000 87.5000 SCS 55 992 3.50000 16 13 0
1998320N10102 1998 94 NI BB NOT_NAMED 1998-11-21 12:00:00 NR 18.8500 87.3500 65 984 newdelhi main 161 137 O___O_________ jtwc_io IO071998 18.7000 87.2000 65 1 19.0000 87.5000 VSCS 65 984 4.00000 24 11 3
1998320N10102 1998 94 NI BB NOT_NAMED 1998-11-21 15:00:00 NR 19.2359 87.4005 main 137 124 P___P_________ IO071998 19.1025 87.3348 65 1 19.3692 87.4662 VSCS 65 984 24 6 13
1998320N10102 1998 94 NI BB NOT_NAMED 1998-11-21 18:00:00 NR 19.4500 87.5000 65 984 newdelhi main 122 114 O___O_________ jtwc_io IO071998 19.4000 87.5000 65 1 19.5000 87.5000 VSCS 65 984 4.00000 24 5 25
1998320N10102 1998 94 NI BB NOT_NAMED 1998-11-21 21:00:00 NR 19.7105 87.6291 main 115 107 P___P_________ IO071998 19.5574 87.5927 70 1 19.8635 87.6655 VSCS 65 984 24 7 27
1998320N10102 1998 94 NI BB NOT_NAMED 1998-11-22 00:00:00 NR 20.1000 87.8500 65 984 newdelhi main 115 100 O___O_________ jtwc_io IO071998 19.7000 87.7000 75 1 20.5000 88.0000 VSCS 65 984 4.00000 24 11 27
1998320N10102 1998 94 NI BB NOT_NAMED 1998-11-22 03:00:00 NR 20.7274 88.1739 60 990 newdelhi main 100 55 P___O_________ IO071998 19.9548 87.8478 65 1 21.5000 88.5000 SCS 60 990 3.50000 18 12 32
1998320N10102 1998 94 NI BB NOT_NAMED 1998-11-22 06:00:00 NR 21.1500 88.5500 55 998 newdelhi main 45 11 O___O_________ jtwc_io IO071998 20.3000 88.1000 55 0 22.0000 89.0000 SCS 55 998 3.50000 10 11 45
1998320N10102 1998 94 NI BB NOT_NAMED 1998-11-22 09:00:00 NR 21.5264 89.0175 main 11 0 P___P_________ IO071998 20.7351 88.5048 47 0 22.3177 89.5302 SCS 11 52
1998320N10102 1998 94 NI BB NOT_NAMED 1998-11-22 12:00:00 NR 21.8500 89.5000 newdelhi main 0 0 O___O_________ jtwc_io IO071998 21.2000 89.0000 40 0 22.5000 90.0000 DD 0.00000 10 54
1998320N10102 1998 94 NI BB NOT_NAMED 1998-11-22 15:00:00 NR 22.1213 89.9008 main 0 0 P___P_________ IO071998 21.6073 89.4854 37 0 22.6354 90.3162 DD 9 51
1998320N10102 1998 94 NI BB NOT_NAMED 1998-11-22 18:00:00 NR 22.4268 90.2791 main 0 0 O___P_________ jtwc_io IO071998 22.0000 90.0000 35 0 22.7469 90.4884 DD 8 48
1998320N10102 1998 94 NI BB NOT_NAMED 1998-11-22 21:00:00 NR 22.6637 90.5482 main 0 0 P___P_________ IO071998 22.3979 90.5418 35 0 22.8409 90.5525 DD 6 42
1998320N10102 1998 94 NI BB NOT_NAMED 1998-11-23 00:00:00 NR 22.8822 90.7296 main 0 0 O___P_________ jtwc_io IO071998 22.8000 91.1000 35 0 22.9234 90.5444 DD 3 354
1998320N10102 1998 94 NI BB NOT_NAMED 1998-11-23 03:00:00 NR 23.0000 90.5000 newdelhi main 0 ____O_________ IO071998 -1 23.0000 90.5000 D 0.00000 5 299

Digital Typhoon Data and Search

About IBTrACS Database

This database is a web-friendly format of International Best Track Archive for Climate Stewardship (IBTrACS), a global best track data archive curated by NOAA dating back to 1842.

Updated: 2021-12-03